sensor_id;sensor_type;location;lat;lon;timestamp;P1;durP1;ratioP1;P2;durP2;ratioP2
22644;SDS011;11489;50.834;6.752;2022-08-19T00:01:20;11.20;;;9.55;;
22644;SDS011;11489;50.834;6.752;2022-08-19T00:03:46;9.88;;;8.73;;
22644;SDS011;11489;50.834;6.752;2022-08-19T00:06:12;11.82;;;9.70;;
22644;SDS011;11489;50.834;6.752;2022-08-19T00:08:38;10.65;;;9.30;;
22644;SDS011;11489;50.834;6.752;2022-08-19T00:11:04;11.57;;;10.15;;
22644;SDS011;11489;50.834;6.752;2022-08-19T00:13:30;12.45;;;9.73;;
22644;SDS011;11489;50.834;6.752;2022-08-19T00:15:56;12.88;;;10.55;;
22644;SDS011;11489;50.834;6.752;2022-08-19T00:18:23;12.63;;;9.95;;
22644;SDS011;11489;50.834;6.752;2022-08-19T00:20:49;15.27;;;10.73;;
22644;SDS011;11489;50.834;6.752;2022-08-19T00:23:15;13.02;;;10.50;;
22644;SDS011;11489;50.834;6.752;2022-08-19T00:25:41;13.15;;;10.73;;
22644;SDS011;11489;50.834;6.752;2022-08-19T00:28:07;14.95;;;10.30;;
22644;SDS011;11489;50.834;6.752;2022-08-19T00:30:32;12.52;;;10.27;;
22644;SDS011;11489;50.834;6.752;2022-08-19T00:32:58;15.43;;;10.90;;
22644;SDS011;11489;50.834;6.752;2022-08-19T00:35:24;12.48;;;11.10;;
22644;SDS011;11489;50.834;6.752;2022-08-19T00:37:52;13.18;;;10.38;;
22644;SDS011;11489;50.834;6.752;2022-08-19T00:40:19;14.07;;;10.95;;
22644;SDS011;11489;50.834;6.752;2022-08-19T00:42:45;12.70;;;10.95;;
22644;SDS011;11489;50.834;6.752;2022-08-19T00:45:13;16.52;;;11.07;;
22644;SDS011;11489;50.834;6.752;2022-08-19T00:47:42;13.63;;;10.63;;
22644;SDS011;11489;50.834;6.752;2022-08-19T00:50:10;15.15;;;12.02;;
22644;SDS011;11489;50.834;6.752;2022-08-19T00:52:40;13.52;;;10.70;;
22644;SDS011;11489;50.834;6.752;2022-08-19T00:55:10;14.85;;;11.45;;
22644;SDS011;11489;50.834;6.752;2022-08-19T00:57:40;14.05;;;10.80;;
22644;SDS011;11489;50.834;6.752;2022-08-19T01:00:11;13.55;;;10.93;;
22644;SDS011;11489;50.834;6.752;2022-08-19T01:02:40;14.07;;;11.02;;
22644;SDS011;11489;50.834;6.752;2022-08-19T01:05:08;14.10;;;11.50;;
22644;SDS011;11489;50.834;6.752;2022-08-19T01:07:37;14.35;;;11.65;;
22644;SDS011;11489;50.834;6.752;2022-08-19T01:10:06;14.68;;;10.98;;
22644;SDS011;11489;50.834;6.752;2022-08-19T01:12:37;12.30;;;10.68;;
22644;SDS011;11489;50.834;6.752;2022-08-19T01:15:05;14.07;;;11.65;;
22644;SDS011;11489;50.834;6.752;2022-08-19T01:17:33;14.10;;;11.82;;
22644;SDS011;11489;50.834;6.752;2022-08-19T01:20:00;13.80;;;11.82;;
22644;SDS011;11489;50.834;6.752;2022-08-19T01:22:27;12.80;;;11.45;;
22644;SDS011;11489;50.834;6.752;2022-08-19T01:24:57;13.48;;;11.70;;
22644;SDS011;11489;50.834;6.752;2022-08-19T01:27:23;15.52;;;12.00;;
22644;SDS011;11489;50.834;6.752;2022-08-19T01:29:48;15.30;;;12.07;;
22644;SDS011;11489;50.834;6.752;2022-08-19T01:32:15;16.50;;;12.85;;
22644;SDS011;11489;50.834;6.752;2022-08-19T01:34:42;14.32;;;11.43;;
22644;SDS011;11489;50.834;6.752;2022-08-19T01:37:12;15.05;;;12.02;;
22644;SDS011;11489;50.834;6.752;2022-08-19T01:39:39;13.95;;;12.02;;
22644;SDS011;11489;50.834;6.752;2022-08-19T01:42:06;16.17;;;13.13;;
22644;SDS011;11489;50.834;6.752;2022-08-19T01:44:35;14.48;;;11.82;;
22644;SDS011;11489;50.834;6.752;2022-08-19T01:47:01;14.63;;;12.35;;
22644;SDS011;11489;50.834;6.752;2022-08-19T01:49:28;15.68;;;12.07;;
22644;SDS011;11489;50.834;6.752;2022-08-19T01:51:55;14.35;;;11.30;;
22644;SDS011;11489;50.834;6.752;2022-08-19T01:54:21;15.00;;;12.35;;
22644;SDS011;11489;50.834;6.752;2022-08-19T01:56:49;13.63;;;11.88;;
22644;SDS011;11489;50.834;6.752;2022-08-19T01:59:17;15.00;;;11.65;;
22644;SDS011;11489;50.834;6.752;2022-08-19T02:01:45;16.02;;;12.13;;
22644;SDS011;11489;50.834;6.752;2022-08-19T02:04:11;16.38;;;12.98;;
22644;SDS011;11489;50.834;6.752;2022-08-19T02:06:37;15.85;;;13.02;;
22644;SDS011;11489;50.834;6.752;2022-08-19T02:09:06;15.73;;;13.05;;
22644;SDS011;11489;50.834;6.752;2022-08-19T02:11:34;16.30;;;12.85;;
22644;SDS011;11489;50.834;6.752;2022-08-19T02:14:02;17.00;;;12.77;;
22644;SDS011;11489;50.834;6.752;2022-08-19T02:16:31;15.63;;;12.80;;
22644;SDS011;11489;50.834;6.752;2022-08-19T02:18:57;15.23;;;12.25;;
22644;SDS011;11489;50.834;6.752;2022-08-19T02:21:26;16.75;;;12.40;;
22644;SDS011;11489;50.834;6.752;2022-08-19T02:23:51;15.07;;;12.18;;
22644;SDS011;11489;50.834;6.752;2022-08-19T02:26:17;13.70;;;11.45;;
22644;SDS011;11489;50.834;6.752;2022-08-19T02:28:44;15.32;;;11.93;;
22644;SDS011;11489;50.834;6.752;2022-08-19T02:31:14;13.07;;;11.50;;
22644;SDS011;11489;50.834;6.752;2022-08-19T02:33:42;16.25;;;12.07;;
22644;SDS011;11489;50.834;6.752;2022-08-19T02:36:09;14.23;;;12.05;;
22644;SDS011;11489;50.834;6.752;2022-08-19T02:38:36;13.45;;;11.68;;
22644;SDS011;11489;50.834;6.752;2022-08-19T02:41:11;17.25;;;13.27;;
22644;SDS011;11489;50.834;6.752;2022-08-19T02:43:44;14.15;;;11.50;;
22644;SDS011;11489;50.834;6.752;2022-08-19T02:46:11;15.02;;;12.57;;
22644;SDS011;11489;50.834;6.752;2022-08-19T02:48:43;17.45;;;12.93;;
22644;SDS011;11489;50.834;6.752;2022-08-19T02:51:09;15.05;;;12.13;;
22644;SDS011;11489;50.834;6.752;2022-08-19T02:53:41;17.30;;;12.73;;
22644;SDS011;11489;50.834;6.752;2022-08-19T02:56:07;16.45;;;13.50;;
22644;SDS011;11489;50.834;6.752;2022-08-19T02:58:33;18.08;;;13.98;;
22644;SDS011;11489;50.834;6.752;2022-08-19T03:00:59;16.92;;;14.15;;
22644;SDS011;11489;50.834;6.752;2022-08-19T03:03:24;17.27;;;14.13;;
22644;SDS011;11489;50.834;6.752;2022-08-19T03:05:50;17.95;;;13.02;;
22644;SDS011;11489;50.834;6.752;2022-08-19T03:08:16;17.98;;;14.82;;
22644;SDS011;11489;50.834;6.752;2022-08-19T03:10:44;17.27;;;13.85;;
22644;SDS011;11489;50.834;6.752;2022-08-19T03:13:12;20.15;;;14.95;;
22644;SDS011;11489;50.834;6.752;2022-08-19T03:15:41;17.67;;;14.48;;
22644;SDS011;11489;50.834;6.752;2022-08-19T03:18:08;17.92;;;14.60;;
22644;SDS011;11489;50.834;6.752;2022-08-19T03:20:39;19.02;;;14.65;;
22644;SDS011;11489;50.834;6.752;2022-08-19T03:23:06;16.88;;;13.70;;
22644;SDS011;11489;50.834;6.752;2022-08-19T03:25:35;19.98;;;15.27;;
22644;SDS011;11489;50.834;6.752;2022-08-19T03:28:03;19.58;;;14.32;;
22644;SDS011;11489;50.834;6.752;2022-08-19T03:30:28;16.77;;;13.90;;
22644;SDS011;11489;50.834;6.752;2022-08-19T03:32:54;19.08;;;14.23;;
22644;SDS011;11489;50.834;6.752;2022-08-19T03:35:20;16.63;;;13.63;;
22644;SDS011;11489;50.834;6.752;2022-08-19T03:37:46;16.85;;;13.65;;
22644;SDS011;11489;50.834;6.752;2022-08-19T03:40:11;18.75;;;14.77;;
22644;SDS011;11489;50.834;6.752;2022-08-19T03:42:37;20.83;;;14.95;;
22644;SDS011;11489;50.834;6.752;2022-08-19T03:45:03;18.05;;;14.60;;
22644;SDS011;11489;50.834;6.752;2022-08-19T03:47:29;18.17;;;14.68;;
22644;SDS011;11489;50.834;6.752;2022-08-19T03:49:55;18.77;;;14.88;;
22644;SDS011;11489;50.834;6.752;2022-08-19T03:52:21;16.90;;;14.02;;
22644;SDS011;11489;50.834;6.752;2022-08-19T03:54:46;19.55;;;15.38;;
22644;SDS011;11489;50.834;6.752;2022-08-19T03:57:12;20.67;;;16.73;;
22644;SDS011;11489;50.834;6.752;2022-08-19T03:59:38;18.75;;;15.60;;
22644;SDS011;11489;50.834;6.752;2022-08-19T04:02:09;21.63;;;16.27;;
22644;SDS011;11489;50.834;6.752;2022-08-19T04:04:37;22.05;;;16.90;;
22644;SDS011;11489;50.834;6.752;2022-08-19T04:07:04;20.08;;;16.95;;
22644;SDS011;11489;50.834;6.752;2022-08-19T04:09:30;20.67;;;16.17;;
22644;SDS011;11489;50.834;6.752;2022-08-19T04:11:56;21.63;;;16.30;;
22644;SDS011;11489;50.834;6.752;2022-08-19T04:14:24;23.05;;;16.52;;
22644;SDS011;11489;50.834;6.752;2022-08-19T04:16:52;21.80;;;17.05;;
22644;SDS011;11489;50.834;6.752;2022-08-19T04:19:18;22.02;;;15.90;;
22644;SDS011;11489;50.834;6.752;2022-08-19T04:21:45;21.52;;;16.73;;
22644;SDS011;11489;50.834;6.752;2022-08-19T04:24:12;20.13;;;16.60;;
22644;SDS011;11489;50.834;6.752;2022-08-19T04:26:38;21.90;;;16.30;;
22644;SDS011;11489;50.834;6.752;2022-08-19T04:29:09;19.92;;;16.55;;
22644;SDS011;11489;50.834;6.752;2022-08-19T04:31:38;19.17;;;15.48;;
22644;SDS011;11489;50.834;6.752;2022-08-19T04:34:07;19.27;;;15.65;;
22644;SDS011;11489;50.834;6.752;2022-08-19T04:36:36;22.73;;;16.80;;
22644;SDS011;11489;50.834;6.752;2022-08-19T04:39:04;22.67;;;16.77;;
22644;SDS011;11489;50.834;6.752;2022-08-19T04:41:32;22.05;;;17.55;;
22644;SDS011;11489;50.834;6.752;2022-08-19T04:44:17;21.83;;;17.42;;
22644;SDS011;11489;50.834;6.752;2022-08-19T04:46:43;22.48;;;17.35;;
22644;SDS011;11489;50.834;6.752;2022-08-19T04:49:09;26.30;;;17.63;;
22644;SDS011;11489;50.834;6.752;2022-08-19T04:51:36;24.88;;;18.08;;
22644;SDS011;11489;50.834;6.752;2022-08-19T04:54:04;28.27;;;19.08;;
22644;SDS011;11489;50.834;6.752;2022-08-19T04:56:30;27.70;;;18.33;;
22644;SDS011;11489;50.834;6.752;2022-08-19T04:58:56;25.90;;;19.25;;
22644;SDS011;11489;50.834;6.752;2022-08-19T05:01:28;26.40;;;19.42;;
22644;SDS011;11489;50.834;6.752;2022-08-19T05:03:55;24.50;;;18.90;;
22644;SDS011;11489;50.834;6.752;2022-08-19T05:06:21;25.15;;;18.33;;
22644;SDS011;11489;50.834;6.752;2022-08-19T05:08:48;23.98;;;17.88;;
22644;SDS011;11489;50.834;6.752;2022-08-19T05:11:16;23.85;;;17.63;;
22644;SDS011;11489;50.834;6.752;2022-08-19T05:13:47;26.70;;;18.35;;
22644;SDS011;11489;50.834;6.752;2022-08-19T05:16:17;23.85;;;18.77;;
22644;SDS011;11489;50.834;6.752;2022-08-19T05:18:44;20.77;;;17.40;;
22644;SDS011;11489;50.834;6.752;2022-08-19T05:21:30;23.83;;;19.25;;
22644;SDS011;11489;50.834;6.752;2022-08-19T05:24:15;26.02;;;19.85;;
22644;SDS011;11489;50.834;6.752;2022-08-19T05:26:43;25.08;;;19.73;;
22644;SDS011;11489;50.834;6.752;2022-08-19T05:29:11;25.50;;;20.48;;
22644;SDS011;11489;50.834;6.752;2022-08-19T05:31:42;32.72;;;21.90;;
22644;SDS011;11489;50.834;6.752;2022-08-19T05:34:08;27.45;;;21.08;;
22644;SDS011;11489;50.834;6.752;2022-08-19T05:36:36;27.25;;;21.25;;
22644;SDS011;11489;50.834;6.752;2022-08-19T05:39:05;26.33;;;20.58;;
22644;SDS011;11489;50.834;6.752;2022-08-19T05:41:31;29.00;;;22.20;;
22644;SDS011;11489;50.834;6.752;2022-08-19T05:43:58;32.22;;;22.40;;
22644;SDS011;11489;50.834;6.752;2022-08-19T05:46:28;26.88;;;21.52;;
22644;SDS011;11489;50.834;6.752;2022-08-19T05:48:54;27.40;;;21.65;;
22644;SDS011;11489;50.834;6.752;2022-08-19T05:51:21;32.42;;;23.25;;
22644;SDS011;11489;50.834;6.752;2022-08-19T05:53:48;27.42;;;22.52;;
22644;SDS011;11489;50.834;6.752;2022-08-19T05:56:15;29.40;;;21.42;;
22644;SDS011;11489;50.834;6.752;2022-08-19T05:58:42;29.10;;;22.70;;
22644;SDS011;11489;50.834;6.752;2022-08-19T06:01:14;30.17;;;22.50;;
22644;SDS011;11489;50.834;6.752;2022-08-19T06:03:41;32.47;;;22.75;;
22644;SDS011;11489;50.834;6.752;2022-08-19T06:06:07;29.67;;;22.98;;
22644;SDS011;11489;50.834;6.752;2022-08-19T06:08:35;29.50;;;22.65;;
22644;SDS011;11489;50.834;6.752;2022-08-19T06:11:15;30.65;;;23.25;;
22644;SDS011;11489;50.834;6.752;2022-08-19T06:13:51;28.73;;;20.85;;
22644;SDS011;11489;50.834;6.752;2022-08-19T06:16:21;33.13;;;23.42;;
22644;SDS011;11489;50.834;6.752;2022-08-19T06:18:57;30.55;;;23.25;;
22644;SDS011;11489;50.834;6.752;2022-08-19T06:21:26;31.98;;;23.90;;
22644;SDS011;11489;50.834;6.752;2022-08-19T06:23:54;33.05;;;22.52;;
22644;SDS011;11489;50.834;6.752;2022-08-19T06:26:21;35.30;;;23.70;;
22644;SDS011;11489;50.834;6.752;2022-08-19T06:28:47;31.65;;;24.08;;
22644;SDS011;11489;50.834;6.752;2022-08-19T06:31:14;35.55;;;24.85;;
22644;SDS011;11489;50.834;6.752;2022-08-19T06:33:46;35.08;;;25.30;;
22644;SDS011;11489;50.834;6.752;2022-08-19T06:36:27;35.78;;;24.42;;
22644;SDS011;11489;50.834;6.752;2022-08-19T06:39:02;30.58;;;22.27;;
22644;SDS011;11489;50.834;6.752;2022-08-19T06:41:30;31.05;;;23.95;;
22644;SDS011;11489;50.834;6.752;2022-08-19T06:43:59;31.88;;;23.25;;
22644;SDS011;11489;50.834;6.752;2022-08-19T06:46:24;32.85;;;23.75;;
22644;SDS011;11489;50.834;6.752;2022-08-19T06:48:51;34.35;;;23.60;;
22644;SDS011;11489;50.834;6.752;2022-08-19T06:51:18;30.95;;;21.55;;
22644;SDS011;11489;50.834;6.752;2022-08-19T06:53:48;28.88;;;21.70;;
22644;SDS011;11489;50.834;6.752;2022-08-19T06:56:17;35.25;;;23.33;;
22644;SDS011;11489;50.834;6.752;2022-08-19T06:58:44;31.13;;;23.23;;
22644;SDS011;11489;50.834;6.752;2022-08-19T07:01:11;30.77;;;22.55;;
22644;SDS011;11489;50.834;6.752;2022-08-19T07:03:37;29.30;;;20.95;;
22644;SDS011;11489;50.834;6.752;2022-08-19T07:06:09;32.33;;;22.20;;
22644;SDS011;11489;50.834;6.752;2022-08-19T07:08:40;29.02;;;20.95;;
22644;SDS011;11489;50.834;6.752;2022-08-19T07:11:08;33.55;;;22.77;;
22644;SDS011;11489;50.834;6.752;2022-08-19T07:13:38;30.23;;;21.88;;
22644;SDS011;11489;50.834;6.752;2022-08-19T07:16:09;30.02;;;22.05;;
22644;SDS011;11489;50.834;6.752;2022-08-19T07:18:38;28.98;;;21.52;;
22644;SDS011;11489;50.834;6.752;2022-08-19T07:23:33;38.03;;;24.25;;
22644;SDS011;11489;50.834;6.752;2022-08-19T07:26:06;38.65;;;25.13;;
22644;SDS011;11489;50.834;6.752;2022-08-19T07:28:34;41.53;;;26.30;;
22644;SDS011;11489;50.834;6.752;2022-08-19T07:31:01;40.65;;;27.50;;
22644;SDS011;11489;50.834;6.752;2022-08-19T07:33:28;43.65;;;27.73;;
22644;SDS011;11489;50.834;6.752;2022-08-19T07:35:57;41.13;;;27.92;;
22644;SDS011;11489;50.834;6.752;2022-08-19T07:38:23;42.78;;;26.58;;
22644;SDS011;11489;50.834;6.752;2022-08-19T07:40:49;38.95;;;25.83;;
22644;SDS011;11489;50.834;6.752;2022-08-19T07:43:16;39.45;;;26.67;;
22644;SDS011;11489;50.834;6.752;2022-08-19T07:45:50;43.58;;;27.45;;
22644;SDS011;11489;50.834;6.752;2022-08-19T07:48:25;45.65;;;29.52;;
22644;SDS011;11489;50.834;6.752;2022-08-19T07:50:56;45.00;;;28.70;;
22644;SDS011;11489;50.834;6.752;2022-08-19T07:53:27;44.20;;;27.83;;
22644;SDS011;11489;50.834;6.752;2022-08-19T07:55:54;44.75;;;28.58;;
22644;SDS011;11489;50.834;6.752;2022-08-19T07:58:21;49.08;;;29.73;;
22644;SDS011;11489;50.834;6.752;2022-08-19T08:00:48;45.45;;;28.75;;
22644;SDS011;11489;50.834;6.752;2022-08-19T08:03:16;44.60;;;30.80;;
22644;SDS011;11489;50.834;6.752;2022-08-19T08:05:44;45.13;;;29.52;;
22644;SDS011;11489;50.834;6.752;2022-08-19T08:08:29;41.97;;;28.23;;
22644;SDS011;11489;50.834;6.752;2022-08-19T08:11:02;38.10;;;26.52;;
22644;SDS011;11489;50.834;6.752;2022-08-19T08:13:29;43.42;;;27.27;;
22644;SDS011;11489;50.834;6.752;2022-08-19T08:15:56;44.30;;;28.85;;
22644;SDS011;11489;50.834;6.752;2022-08-19T08:18:22;41.53;;;27.65;;
22644;SDS011;11489;50.834;6.752;2022-08-19T08:20:49;38.67;;;26.38;;
22644;SDS011;11489;50.834;6.752;2022-08-19T08:23:15;40.53;;;26.30;;
22644;SDS011;11489;50.834;6.752;2022-08-19T08:25:54;40.83;;;26.33;;
22644;SDS011;11489;50.834;6.752;2022-08-19T08:28:22;37.70;;;24.55;;
22644;SDS011;11489;50.834;6.752;2022-08-19T08:30:49;40.10;;;23.55;;
22644;SDS011;11489;50.834;6.752;2022-08-19T08:33:19;35.20;;;23.50;;
22644;SDS011;11489;50.834;6.752;2022-08-19T08:35:46;31.63;;;21.85;;
22644;SDS011;11489;50.834;6.752;2022-08-19T08:38:12;31.90;;;21.83;;
22644;SDS011;11489;50.834;6.752;2022-08-19T08:40:42;25.35;;;19.17;;
22644;SDS011;11489;50.834;6.752;2022-08-19T08:43:21;27.15;;;20.05;;
22644;SDS011;11489;50.834;6.752;2022-08-19T08:45:59;23.95;;;17.30;;
22644;SDS011;11489;50.834;6.752;2022-08-19T08:51:12;23.85;;;16.92;;
22644;SDS011;11489;50.834;6.752;2022-08-19T08:53:46;20.40;;;15.60;;
22644;SDS011;11489;50.834;6.752;2022-08-19T08:56:15;18.33;;;14.85;;
22644;SDS011;11489;50.834;6.752;2022-08-19T08:58:58;22.75;;;16.73;;
22644;SDS011;11489;50.834;6.752;2022-08-19T09:01:24;18.88;;;15.15;;
22644;SDS011;11489;50.834;6.752;2022-08-19T09:03:51;22.35;;;14.18;;
22644;SDS011;11489;50.834;6.752;2022-08-19T09:06:29;20.70;;;15.40;;
22644;SDS011;11489;50.834;6.752;2022-08-19T09:11:40;13.80;;;11.60;;
22644;SDS011;11489;50.834;6.752;2022-08-19T09:16:59;10.98;;;9.77;;
22644;SDS011;11489;50.834;6.752;2022-08-19T09:19:28;11.27;;;9.43;;
22644;SDS011;11489;50.834;6.752;2022-08-19T09:21:55;12.75;;;8.95;;
22644;SDS011;11489;50.834;6.752;2022-08-19T09:24:20;11.65;;;9.77;;
22644;SDS011;11489;50.834;6.752;2022-08-19T09:26:46;13.98;;;10.68;;
22644;SDS011;11489;50.834;6.752;2022-08-19T09:29:12;9.85;;;8.27;;
22644;SDS011;11489;50.834;6.752;2022-08-19T09:31:38;10.70;;;8.63;;
22644;SDS011;11489;50.834;6.752;2022-08-19T09:34:03;10.20;;;8.35;;
22644;SDS011;11489;50.834;6.752;2022-08-19T09:36:32;14.07;;;9.68;;
22644;SDS011;11489;50.834;6.752;2022-08-19T09:39:00;11.43;;;10.15;;
22644;SDS011;11489;50.834;6.752;2022-08-19T09:41:25;8.55;;;7.43;;
22644;SDS011;11489;50.834;6.752;2022-08-19T09:43:52;9.93;;;7.85;;
22644;SDS011;11489;50.834;6.752;2022-08-19T09:46:26;8.20;;;7.20;;
22644;SDS011;11489;50.834;6.752;2022-08-19T09:48:53;9.55;;;7.70;;
22644;SDS011;11489;50.834;6.752;2022-08-19T09:51:23;9.27;;;8.02;;
22644;SDS011;11489;50.834;6.752;2022-08-19T09:53:52;8.52;;;6.93;;
22644;SDS011;11489;50.834;6.752;2022-08-19T09:56:22;8.88;;;7.30;;
22644;SDS011;11489;50.834;6.752;2022-08-19T09:58:48;11.98;;;9.18;;
22644;SDS011;11489;50.834;6.752;2022-08-19T10:01:18;12.63;;;9.18;;
22644;SDS011;11489;50.834;6.752;2022-08-19T10:03:54;11.80;;;9.00;;
22644;SDS011;11489;50.834;6.752;2022-08-19T10:06:23;10.57;;;9.13;;
22644;SDS011;11489;50.834;6.752;2022-08-19T10:08:50;13.00;;;10.48;;
22644;SDS011;11489;50.834;6.752;2022-08-19T10:11:17;12.57;;;9.82;;
22644;SDS011;11489;50.834;6.752;2022-08-19T10:13:44;14.43;;;10.57;;
22644;SDS011;11489;50.834;6.752;2022-08-19T10:16:14;12.10;;;9.55;;
22644;SDS011;11489;50.834;6.752;2022-08-19T10:18:44;13.90;;;10.02;;
22644;SDS011;11489;50.834;6.752;2022-08-19T10:21:14;12.23;;;10.45;;
22644;SDS011;11489;50.834;6.752;2022-08-19T10:23:45;12.13;;;10.13;;
22644;SDS011;11489;50.834;6.752;2022-08-19T10:26:15;14.32;;;10.75;;
22644;SDS011;11489;50.834;6.752;2022-08-19T10:28:42;11.00;;;9.82;;
22644;SDS011;11489;50.834;6.752;2022-08-19T10:31:16;12.45;;;11.00;;
22644;SDS011;11489;50.834;6.752;2022-08-19T10:33:45;16.10;;;9.68;;
22644;SDS011;11489;50.834;6.752;2022-08-19T10:36:14;13.70;;;12.30;;
22644;SDS011;11489;50.834;6.752;2022-08-19T10:38:43;10.25;;;9.15;;
22644;SDS011;11489;50.834;6.752;2022-08-19T10:41:14;11.55;;;9.93;;
22644;SDS011;11489;50.834;6.752;2022-08-19T10:43:50;12.52;;;9.75;;
22644;SDS011;11489;50.834;6.752;2022-08-19T10:46:19;11.90;;;10.40;;
22644;SDS011;11489;50.834;6.752;2022-08-19T10:48:46;11.75;;;8.68;;
22644;SDS011;11489;50.834;6.752;2022-08-19T10:51:12;10.48;;;8.43;;
22644;SDS011;11489;50.834;6.752;2022-08-19T10:53:56;11.57;;;10.38;;
22644;SDS011;11489;50.834;6.752;2022-08-19T10:56:23;11.43;;;9.48;;
22644;SDS011;11489;50.834;6.752;2022-08-19T10:59:07;11.00;;;9.57;;
22644;SDS011;11489;50.834;6.752;2022-08-19T11:01:34;10.88;;;9.77;;
22644;SDS011;11489;50.834;6.752;2022-08-19T11:04:00;13.45;;;12.05;;
22644;SDS011;11489;50.834;6.752;2022-08-19T11:06:28;10.93;;;9.85;;
22644;SDS011;11489;50.834;6.752;2022-08-19T11:08:56;11.52;;;10.32;;
22644;SDS011;11489;50.834;6.752;2022-08-19T11:11:21;11.73;;;10.43;;
22644;SDS011;11489;50.834;6.752;2022-08-19T11:13:47;16.40;;;13.63;;
22644;SDS011;11489;50.834;6.752;2022-08-19T11:16:16;14.15;;;12.50;;
22644;SDS011;11489;50.834;6.752;2022-08-19T11:18:45;13.88;;;12.40;;
22644;SDS011;11489;50.834;6.752;2022-08-19T11:21:16;14.93;;;13.43;;
22644;SDS011;11489;50.834;6.752;2022-08-19T11:23:47;13.20;;;11.90;;
22644;SDS011;11489;50.834;6.752;2022-08-19T11:26:14;12.70;;;11.40;;
22644;SDS011;11489;50.834;6.752;2022-08-19T11:28:41;14.85;;;12.73;;
22644;SDS011;11489;50.834;6.752;2022-08-19T11:31:11;14.10;;;12.32;;
22644;SDS011;11489;50.834;6.752;2022-08-19T11:33:38;14.45;;;12.45;;
22644;SDS011;11489;50.834;6.752;2022-08-19T11:36:04;15.25;;;12.98;;
22644;SDS011;11489;50.834;6.752;2022-08-19T11:38:29;15.20;;;12.95;;
22644;SDS011;11489;50.834;6.752;2022-08-19T11:40:59;14.38;;;12.13;;
22644;SDS011;11489;50.834;6.752;2022-08-19T11:43:26;14.45;;;12.43;;
22644;SDS011;11489;50.834;6.752;2022-08-19T11:45:53;12.90;;;11.32;;
22644;SDS011;11489;50.834;6.752;2022-08-19T11:48:20;13.60;;;12.15;;
22644;SDS011;11489;50.834;6.752;2022-08-19T11:50:50;18.00;;;14.32;;
22644;SDS011;11489;50.834;6.752;2022-08-19T11:53:18;14.85;;;11.63;;
22644;SDS011;11489;50.834;6.752;2022-08-19T11:55:48;14.52;;;12.68;;
22644;SDS011;11489;50.834;6.752;2022-08-19T11:58:15;14.38;;;11.98;;
22644;SDS011;11489;50.834;6.752;2022-08-19T12:00:42;12.57;;;10.75;;
22644;SDS011;11489;50.834;6.752;2022-08-19T12:03:10;15.52;;;10.95;;
22644;SDS011;11489;50.834;6.752;2022-08-19T12:05:38;16.20;;;10.93;;
22644;SDS011;11489;50.834;6.752;2022-08-19T12:08:05;15.52;;;11.23;;
22644;SDS011;11489;50.834;6.752;2022-08-19T12:10:31;10.57;;;9.02;;
22644;SDS011;11489;50.834;6.752;2022-08-19T12:12:57;13.13;;;10.07;;
22644;SDS011;11489;50.834;6.752;2022-08-19T12:15:23;13.85;;;10.63;;
22644;SDS011;11489;50.834;6.752;2022-08-19T12:17:52;13.73;;;10.32;;
22644;SDS011;11489;50.834;6.752;2022-08-19T12:20:21;11.63;;;9.88;;
22644;SDS011;11489;50.834;6.752;2022-08-19T12:22:48;13.32;;;10.65;;
22644;SDS011;11489;50.834;6.752;2022-08-19T12:25:15;12.30;;;10.48;;
22644;SDS011;11489;50.834;6.752;2022-08-19T12:27:41;14.02;;;10.48;;
22644;SDS011;11489;50.834;6.752;2022-08-19T12:30:07;11.25;;;10.05;;
22644;SDS011;11489;50.834;6.752;2022-08-19T12:32:35;9.93;;;8.88;;
22644;SDS011;11489;50.834;6.752;2022-08-19T12:35:01;11.98;;;9.48;;
22644;SDS011;11489;50.834;6.752;2022-08-19T12:37:28;10.25;;;9.10;;
22644;SDS011;11489;50.834;6.752;2022-08-19T12:39:54;11.60;;;9.68;;
22644;SDS011;11489;50.834;6.752;2022-08-19T12:42:20;11.15;;;8.55;;
22644;SDS011;11489;50.834;6.752;2022-08-19T12:44:47;9.73;;;8.43;;
22644;SDS011;11489;50.834;6.752;2022-08-19T12:47:13;13.50;;;8.48;;
22644;SDS011;11489;50.834;6.752;2022-08-19T12:49:39;9.73;;;8.20;;
22644;SDS011;11489;50.834;6.752;2022-08-19T12:52:06;11.80;;;8.75;;
22644;SDS011;11489;50.834;6.752;2022-08-19T12:54:33;10.80;;;8.55;;
22644;SDS011;11489;50.834;6.752;2022-08-19T12:57:08;9.05;;;7.13;;
22644;SDS011;11489;50.834;6.752;2022-08-19T12:59:35;10.35;;;8.35;;
22644;SDS011;11489;50.834;6.752;2022-08-19T13:02:03;10.38;;;8.73;;
22644;SDS011;11489;50.834;6.752;2022-08-19T13:04:31;11.32;;;8.55;;
22644;SDS011;11489;50.834;6.752;2022-08-19T13:07:02;10.20;;;7.80;;
22644;SDS011;11489;50.834;6.752;2022-08-19T13:09:28;13.13;;;8.73;;
22644;SDS011;11489;50.834;6.752;2022-08-19T13:11:54;10.52;;;8.75;;
22644;SDS011;11489;50.834;6.752;2022-08-19T13:14:19;11.23;;;9.40;;
22644;SDS011;11489;50.834;6.752;2022-08-19T13:16:45;12.32;;;8.32;;
22644;SDS011;11489;50.834;6.752;2022-08-19T13:19:11;9.05;;;8.13;;
22644;SDS011;11489;50.834;6.752;2022-08-19T13:21:38;9.65;;;7.75;;
22644;SDS011;11489;50.834;6.752;2022-08-19T13:24:04;13.00;;;8.95;;
22644;SDS011;11489;50.834;6.752;2022-08-19T13:26:30;10.07;;;9.02;;
22644;SDS011;11489;50.834;6.752;2022-08-19T13:28:55;12.57;;;7.82;;
22644;SDS011;11489;50.834;6.752;2022-08-19T13:31:40;11.18;;;7.50;;
22644;SDS011;11489;50.834;6.752;2022-08-19T13:34:27;8.18;;;7.32;;
22644;SDS011;11489;50.834;6.752;2022-08-19T13:36:59;6.60;;;6.00;;
22644;SDS011;11489;50.834;6.752;2022-08-19T13:39:28;9.05;;;7.43;;
22644;SDS011;11489;50.834;6.752;2022-08-19T13:41:54;9.40;;;8.23;;
22644;SDS011;11489;50.834;6.752;2022-08-19T13:44:20;13.70;;;9.10;;
22644;SDS011;11489;50.834;6.752;2022-08-19T13:46:46;9.35;;;7.47;;
22644;SDS011;11489;50.834;6.752;2022-08-19T13:49:13;10.20;;;7.20;;
22644;SDS011;11489;50.834;6.752;2022-08-19T13:51:40;9.27;;;6.70;;
22644;SDS011;11489;50.834;6.752;2022-08-19T13:54:10;10.25;;;8.13;;
22644;SDS011;11489;50.834;6.752;2022-08-19T13:56:39;8.13;;;7.30;;
22644;SDS011;11489;50.834;6.752;2022-08-19T13:59:07;10.18;;;8.70;;
22644;SDS011;11489;50.834;6.752;2022-08-19T14:01:32;12.52;;;7.85;;
22644;SDS011;11489;50.834;6.752;2022-08-19T14:03:58;10.23;;;7.10;;
22644;SDS011;11489;50.834;6.752;2022-08-19T14:06:24;9.45;;;6.55;;
22644;SDS011;11489;50.834;6.752;2022-08-19T14:08:50;8.23;;;6.10;;
22644;SDS011;11489;50.834;6.752;2022-08-19T14:11:17;7.03;;;5.30;;
22644;SDS011;11489;50.834;6.752;2022-08-19T14:13:43;6.57;;;4.70;;
22644;SDS011;11489;50.834;6.752;2022-08-19T14:16:10;5.20;;;3.78;;
22644;SDS011;11489;50.834;6.752;2022-08-19T14:18:38;4.43;;;3.97;;
22644;SDS011;11489;50.834;6.752;2022-08-19T14:21:04;7.60;;;4.10;;
22644;SDS011;11489;50.834;6.752;2022-08-19T14:23:31;6.57;;;4.57;;
22644;SDS011;11489;50.834;6.752;2022-08-19T14:26:08;6.93;;;5.03;;
22644;SDS011;11489;50.834;6.752;2022-08-19T14:28:37;5.70;;;3.20;;
22644;SDS011;11489;50.834;6.752;2022-08-19T14:31:05;2.90;;;2.60;;
22644;SDS011;11489;50.834;6.752;2022-08-19T14:33:31;3.92;;;2.75;;
22644;SDS011;11489;50.834;6.752;2022-08-19T14:35:57;3.38;;;2.17;;
22644;SDS011;11489;50.834;6.752;2022-08-19T14:38:23;6.55;;;2.33;;
22644;SDS011;11489;50.834;6.752;2022-08-19T14:40:48;3.28;;;2.22;;
22644;SDS011;11489;50.834;6.752;2022-08-19T14:43:17;4.70;;;2.38;;